sensor_id;sensor_type;location;lat;lon;timestamp;P1;durP1;ratioP1;P2;durP2;ratioP2
34872;SDS011;21084;51.098;14.506;2023-04-24T00:00:12;11.65;;;7.15;;
34872;SDS011;21084;51.098;14.506;2023-04-24T00:02:42;8.68;;;6.47;;
34872;SDS011;21084;51.098;14.506;2023-04-24T00:05:14;13.05;;;7.80;;
34872;SDS011;21084;51.098;14.506;2023-04-24T00:07:44;14.13;;;7.45;;
34872;SDS011;21084;51.098;14.506;2023-04-24T00:10:13;10.87;;;6.90;;
34872;SDS011;21084;51.098;14.506;2023-04-24T00:12:41;9.73;;;6.50;;
34872;SDS011;21084;51.098;14.506;2023-04-24T00:15:12;10.23;;;7.28;;
34872;SDS011;21084;51.098;14.506;2023-04-24T00:17:41;12.18;;;7.07;;
34872;SDS011;21084;51.098;14.506;2023-04-24T00:20:10;10.98;;;7.32;;
34872;SDS011;21084;51.098;14.506;2023-04-24T00:22:38;13.15;;;7.20;;
34872;SDS011;21084;51.098;14.506;2023-04-24T00:25:07;11.45;;;7.05;;
34872;SDS011;21084;51.098;14.506;2023-04-24T00:27:36;13.97;;;7.73;;
34872;SDS011;21084;51.098;14.506;2023-04-24T00:30:05;10.75;;;8.02;;
34872;SDS011;21084;51.098;14.506;2023-04-24T00:32:36;13.70;;;7.13;;
34872;SDS011;21084;51.098;14.506;2023-04-24T00:35:05;14.07;;;7.82;;
34872;SDS011;21084;51.098;14.506;2023-04-24T00:37:35;13.57;;;8.27;;
34872;SDS011;21084;51.098;14.506;2023-04-24T00:40:04;13.50;;;7.47;;
34872;SDS011;21084;51.098;14.506;2023-04-24T00:42:34;11.77;;;7.43;;
34872;SDS011;21084;51.098;14.506;2023-04-24T00:45:03;10.75;;;7.35;;
34872;SDS011;21084;51.098;14.506;2023-04-24T00:47:33;11.93;;;8.13;;
34872;SDS011;21084;51.098;14.506;2023-04-24T00:50:04;14.27;;;9.73;;
34872;SDS011;21084;51.098;14.506;2023-04-24T00:52:34;16.58;;;10.00;;
34872;SDS011;21084;51.098;14.506;2023-04-24T00:55:04;16.10;;;10.70;;
34872;SDS011;21084;51.098;14.506;2023-04-24T01:00:02;16.77;;;10.82;;
34872;SDS011;21084;51.098;14.506;2023-04-24T01:02:37;16.08;;;11.55;;
34872;SDS011;21084;51.098;14.506;2023-04-24T01:05:13;22.98;;;12.38;;
34872;SDS011;21084;51.098;14.506;2023-04-24T01:07:45;14.93;;;10.57;;
34872;SDS011;21084;51.098;14.506;2023-04-24T01:10:15;17.75;;;10.35;;
34872;SDS011;21084;51.098;14.506;2023-04-24T01:12:47;14.60;;;9.95;;
34872;SDS011;21084;51.098;14.506;2023-04-24T01:15:15;20.05;;;10.95;;
34872;SDS011;21084;51.098;14.506;2023-04-24T01:17:44;20.10;;;11.02;;
34872;SDS011;21084;51.098;14.506;2023-04-24T01:20:14;16.67;;;10.60;;
34872;SDS011;21084;51.098;14.506;2023-04-24T01:22:45;15.82;;;10.77;;
34872;SDS011;21084;51.098;14.506;2023-04-24T01:25:13;16.40;;;9.68;;
34872;SDS011;21084;51.098;14.506;2023-04-24T01:27:42;17.42;;;10.77;;
34872;SDS011;21084;51.098;14.506;2023-04-24T01:30:11;15.80;;;10.03;;
34872;SDS011;21084;51.098;14.506;2023-04-24T01:32:41;13.70;;;9.57;;
34872;SDS011;21084;51.098;14.506;2023-04-24T01:35:11;14.52;;;9.95;;
34872;SDS011;21084;51.098;14.506;2023-04-24T01:37:40;14.32;;;9.70;;
34872;SDS011;21084;51.098;14.506;2023-04-24T01:40:11;17.35;;;10.85;;
34872;SDS011;21084;51.098;14.506;2023-04-24T01:42:40;13.38;;;9.43;;
34872;SDS011;21084;51.098;14.506;2023-04-24T01:45:10;17.25;;;10.93;;
34872;SDS011;21084;51.098;14.506;2023-04-24T01:47:40;13.10;;;9.43;;
34872;SDS011;21084;51.098;14.506;2023-04-24T01:50:09;15.40;;;9.85;;
34872;SDS011;21084;51.098;14.506;2023-04-24T01:52:38;15.93;;;10.55;;
34872;SDS011;21084;51.098;14.506;2023-04-24T01:55:08;13.20;;;9.32;;
34872;SDS011;21084;51.098;14.506;2023-04-24T01:57:39;16.20;;;9.95;;
34872;SDS011;21084;51.098;14.506;2023-04-24T02:00:08;11.23;;;8.85;;
34872;SDS011;21084;51.098;14.506;2023-04-24T02:02:38;14.68;;;9.50;;
34872;SDS011;21084;51.098;14.506;2023-04-24T02:05:08;11.73;;;8.95;;
34872;SDS011;21084;51.098;14.506;2023-04-24T02:07:37;14.98;;;9.88;;
34872;SDS011;21084;51.098;14.506;2023-04-24T02:10:06;13.77;;;9.70;;
34872;SDS011;21084;51.098;14.506;2023-04-24T02:15:07;18.73;;;9.20;;
34872;SDS011;21084;51.098;14.506;2023-04-24T02:17:36;13.73;;;9.80;;
34872;SDS011;21084;51.098;14.506;2023-04-24T02:20:05;14.88;;;10.52;;
34872;SDS011;21084;51.098;14.506;2023-04-24T02:22:35;18.15;;;10.82;;
34872;SDS011;21084;51.098;14.506;2023-04-24T02:25:04;14.87;;;10.40;;
34872;SDS011;21084;51.098;14.506;2023-04-24T02:27:34;15.40;;;9.50;;
34872;SDS011;21084;51.098;14.506;2023-04-24T02:30:04;16.53;;;10.17;;
34872;SDS011;21084;51.098;14.506;2023-04-24T02:32:35;14.65;;;9.98;;
34872;SDS011;21084;51.098;14.506;2023-04-24T02:35:05;14.75;;;10.20;;
34872;SDS011;21084;51.098;14.506;2023-04-24T02:37:35;12.27;;;9.52;;
34872;SDS011;21084;51.098;14.506;2023-04-24T02:40:03;13.57;;;9.60;;
34872;SDS011;21084;51.098;14.506;2023-04-24T02:42:34;16.65;;;10.68;;
34872;SDS011;21084;51.098;14.506;2023-04-24T02:45:03;15.80;;;10.90;;
34872;SDS011;21084;51.098;14.506;2023-04-24T02:47:33;16.67;;;10.82;;
34872;SDS011;21084;51.098;14.506;2023-04-24T02:50:02;18.27;;;11.63;;
34872;SDS011;21084;51.098;14.506;2023-04-24T02:52:32;17.38;;;11.38;;
34872;SDS011;21084;51.098;14.506;2023-04-24T02:55:00;20.35;;;12.13;;
34872;SDS011;21084;51.098;14.506;2023-04-24T02:57:29;19.67;;;13.10;;
34872;SDS011;21084;51.098;14.506;2023-04-24T02:59:58;21.35;;;13.82;;
34872;SDS011;21084;51.098;14.506;2023-04-24T03:02:27;22.15;;;14.25;;
34872;SDS011;21084;51.098;14.506;2023-04-24T03:04:57;23.57;;;13.97;;
34872;SDS011;21084;51.098;14.506;2023-04-24T03:07:26;20.52;;;13.48;;
34872;SDS011;21084;51.098;14.506;2023-04-24T03:09:55;20.27;;;13.77;;
34872;SDS011;21084;51.098;14.506;2023-04-24T03:12:24;22.00;;;14.25;;
34872;SDS011;21084;51.098;14.506;2023-04-24T03:14:53;20.08;;;13.38;;
34872;SDS011;21084;51.098;14.506;2023-04-24T03:17:22;25.27;;;14.02;;
34872;SDS011;21084;51.098;14.506;2023-04-24T03:19:50;19.70;;;13.60;;
34872;SDS011;21084;51.098;14.506;2023-04-24T03:22:21;19.90;;;14.23;;
34872;SDS011;21084;51.098;14.506;2023-04-24T03:27:18;20.58;;;13.32;;
34872;SDS011;21084;51.098;14.506;2023-04-24T03:29:47;19.27;;;12.93;;
34872;SDS011;21084;51.098;14.506;2023-04-24T03:32:18;21.98;;;13.40;;
34872;SDS011;21084;51.098;14.506;2023-04-24T03:34:47;19.35;;;12.57;;
34872;SDS011;21084;51.098;14.506;2023-04-24T03:37:15;19.45;;;13.30;;
34872;SDS011;21084;51.098;14.506;2023-04-24T03:39:45;18.65;;;13.05;;
34872;SDS011;21084;51.098;14.506;2023-04-24T03:42:14;21.23;;;13.65;;
34872;SDS011;21084;51.098;14.506;2023-04-24T03:44:43;18.77;;;13.52;;
34872;SDS011;21084;51.098;14.506;2023-04-24T03:47:12;21.50;;;14.15;;
34872;SDS011;21084;51.098;14.506;2023-04-24T03:49:40;22.08;;;13.57;;
34872;SDS011;21084;51.098;14.506;2023-04-24T03:52:09;20.35;;;14.27;;
34872;SDS011;21084;51.098;14.506;2023-04-24T03:54:38;20.65;;;14.25;;
34872;SDS011;21084;51.098;14.506;2023-04-24T03:57:08;20.80;;;13.98;;
34872;SDS011;21084;51.098;14.506;2023-04-24T03:59:37;18.58;;;13.88;;
34872;SDS011;21084;51.098;14.506;2023-04-24T04:02:06;17.70;;;13.60;;
34872;SDS011;21084;51.098;14.506;2023-04-24T04:04:35;24.10;;;14.23;;
34872;SDS011;21084;51.098;14.506;2023-04-24T04:07:05;27.10;;;15.35;;
34872;SDS011;21084;51.098;14.506;2023-04-24T04:09:34;27.23;;;16.08;;
34872;SDS011;21084;51.098;14.506;2023-04-24T04:12:03;25.80;;;17.08;;
34872;SDS011;21084;51.098;14.506;2023-04-24T04:14:33;23.88;;;16.48;;
34872;SDS011;21084;51.098;14.506;2023-04-24T04:17:01;26.15;;;16.25;;
34872;SDS011;21084;51.098;14.506;2023-04-24T04:19:30;23.70;;;14.52;;
34872;SDS011;21084;51.098;14.506;2023-04-24T04:21:59;18.83;;;13.43;;
34872;SDS011;21084;51.098;14.506;2023-04-24T04:24:28;21.27;;;14.50;;
34872;SDS011;21084;51.098;14.506;2023-04-24T04:26:57;24.67;;;17.08;;
34872;SDS011;21084;51.098;14.506;2023-04-24T04:29:26;24.08;;;16.50;;
34872;SDS011;21084;51.098;14.506;2023-04-24T04:31:56;23.38;;;16.63;;
34872;SDS011;21084;51.098;14.506;2023-04-24T04:34:25;26.20;;;16.80;;
34872;SDS011;21084;51.098;14.506;2023-04-24T04:36:54;24.70;;;16.50;;
34872;SDS011;21084;51.098;14.506;2023-04-24T04:39:22;22.85;;;16.05;;
34872;SDS011;21084;51.098;14.506;2023-04-24T04:41:51;23.20;;;16.33;;
34872;SDS011;21084;51.098;14.506;2023-04-24T04:44:20;33.55;;;16.13;;
34872;SDS011;21084;51.098;14.506;2023-04-24T04:46:50;28.50;;;17.35;;
34872;SDS011;21084;51.098;14.506;2023-04-24T04:51:50;30.13;;;18.52;;
34872;SDS011;21084;51.098;14.506;2023-04-24T04:54:19;35.33;;;19.75;;
34872;SDS011;21084;51.098;14.506;2023-04-24T04:56:49;30.48;;;19.25;;
34872;SDS011;21084;51.098;14.506;2023-04-24T04:59:18;28.58;;;18.98;;
34872;SDS011;21084;51.098;14.506;2023-04-24T05:01:46;27.33;;;18.40;;
34872;SDS011;21084;51.098;14.506;2023-04-24T05:04:15;30.50;;;17.50;;
34872;SDS011;21084;51.098;14.506;2023-04-24T05:06:45;33.97;;;18.10;;
34872;SDS011;21084;51.098;14.506;2023-04-24T05:09:14;31.80;;;18.65;;
34872;SDS011;21084;51.098;14.506;2023-04-24T05:11:43;27.85;;;17.85;;
34872;SDS011;21084;51.098;14.506;2023-04-24T05:14:11;27.92;;;17.13;;
34872;SDS011;21084;51.098;14.506;2023-04-24T05:16:40;25.70;;;16.67;;
34872;SDS011;21084;51.098;14.506;2023-04-24T05:19:09;25.37;;;16.07;;
34872;SDS011;21084;51.098;14.506;2023-04-24T05:21:38;24.33;;;16.00;;
34872;SDS011;21084;51.098;14.506;2023-04-24T05:24:08;22.20;;;15.70;;
34872;SDS011;21084;51.098;14.506;2023-04-24T05:26:37;23.70;;;16.13;;
34872;SDS011;21084;51.098;14.506;2023-04-24T05:29:06;27.27;;;15.23;;
34872;SDS011;21084;51.098;14.506;2023-04-24T05:31:34;27.95;;;16.98;;
34872;SDS011;21084;51.098;14.506;2023-04-24T05:34:03;22.02;;;14.55;;
34872;SDS011;21084;51.098;14.506;2023-04-24T05:39:01;22.00;;;14.63;;
34872;SDS011;21084;51.098;14.506;2023-04-24T05:41:35;18.83;;;14.43;;
34872;SDS011;21084;51.098;14.506;2023-04-24T05:44:04;23.02;;;13.98;;
34872;SDS011;21084;51.098;14.506;2023-04-24T05:46:33;18.70;;;12.05;;
34872;SDS011;21084;51.098;14.506;2023-04-24T05:49:02;20.98;;;11.68;;
34872;SDS011;21084;51.098;14.506;2023-04-24T05:51:31;17.53;;;12.60;;
34872;SDS011;21084;51.098;14.506;2023-04-24T05:54:00;34.83;;;24.95;;
34872;SDS011;21084;51.098;14.506;2023-04-24T05:56:30;21.95;;;15.52;;
34872;SDS011;21084;51.098;14.506;2023-04-24T05:59:00;18.52;;;12.70;;
34872;SDS011;21084;51.098;14.506;2023-04-24T06:01:30;15.88;;;12.25;;
34872;SDS011;21084;51.098;14.506;2023-04-24T06:03:59;18.30;;;11.93;;
34872;SDS011;21084;51.098;14.506;2023-04-24T06:06:28;21.25;;;12.05;;
34872;SDS011;21084;51.098;14.506;2023-04-24T06:08:57;16.75;;;10.80;;
34872;SDS011;21084;51.098;14.506;2023-04-24T06:11:25;17.08;;;9.88;;
34872;SDS011;21084;51.098;14.506;2023-04-24T06:13:54;15.23;;;9.70;;
34872;SDS011;21084;51.098;14.506;2023-04-24T06:16:23;17.80;;;9.60;;
34872;SDS011;21084;51.098;14.506;2023-04-24T06:21:20;13.63;;;9.38;;
34872;SDS011;21084;51.098;14.506;2023-04-24T06:23:49;12.40;;;9.48;;
34872;SDS011;21084;51.098;14.506;2023-04-24T06:26:17;13.68;;;9.75;;
34872;SDS011;21084;51.098;14.506;2023-04-24T06:28:46;16.90;;;11.20;;
34872;SDS011;21084;51.098;14.506;2023-04-24T06:31:16;14.50;;;9.85;;
34872;SDS011;21084;51.098;14.506;2023-04-24T06:33:45;14.48;;;9.50;;
34872;SDS011;21084;51.098;14.506;2023-04-24T06:36:16;13.98;;;10.02;;
34872;SDS011;21084;51.098;14.506;2023-04-24T06:38:45;18.35;;;9.57;;
34872;SDS011;21084;51.098;14.506;2023-04-24T06:41:13;13.02;;;8.80;;
34872;SDS011;21084;51.098;14.506;2023-04-24T06:43:41;11.68;;;8.25;;
34872;SDS011;21084;51.098;14.506;2023-04-24T06:46:10;10.75;;;8.02;;
34872;SDS011;21084;51.098;14.506;2023-04-24T06:48:39;13.52;;;8.38;;
34872;SDS011;21084;51.098;14.506;2023-04-24T06:51:09;9.48;;;7.43;;
34872;SDS011;21084;51.098;14.506;2023-04-24T06:53:37;10.88;;;7.68;;
34872;SDS011;21084;51.098;14.506;2023-04-24T06:56:05;9.68;;;7.05;;
34872;SDS011;21084;51.098;14.506;2023-04-24T06:58:34;10.53;;;7.77;;
34872;SDS011;21084;51.098;14.506;2023-04-24T07:01:03;10.93;;;7.97;;
34872;SDS011;21084;51.098;14.506;2023-04-24T07:03:32;11.05;;;7.00;;
34872;SDS011;21084;51.098;14.506;2023-04-24T07:06:00;10.35;;;6.97;;
34872;SDS011;21084;51.098;14.506;2023-04-24T07:08:31;7.80;;;5.90;;
34872;SDS011;21084;51.098;14.506;2023-04-24T07:11:00;8.88;;;6.07;;
34872;SDS011;21084;51.098;14.506;2023-04-24T07:13:28;8.98;;;6.72;;
34872;SDS011;21084;51.098;14.506;2023-04-24T07:15:57;8.90;;;5.47;;
34872;SDS011;21084;51.098;14.506;2023-04-24T07:18:25;7.30;;;4.95;;
34872;SDS011;21084;51.098;14.506;2023-04-24T07:20:54;6.88;;;5.20;;
34872;SDS011;21084;51.098;14.506;2023-04-24T07:23:23;10.30;;;5.27;;
34872;SDS011;21084;51.098;14.506;2023-04-24T07:25:53;6.57;;;4.93;;
34872;SDS011;21084;51.098;14.506;2023-04-24T07:28:21;8.18;;;4.90;;
34872;SDS011;21084;51.098;14.506;2023-04-24T07:30:50;7.80;;;4.90;;
34872;SDS011;21084;51.098;14.506;2023-04-24T07:33:20;8.27;;;5.75;;
34872;SDS011;21084;51.098;14.506;2023-04-24T07:35:49;7.07;;;5.10;;
34872;SDS011;21084;51.098;14.506;2023-04-24T07:38:18;10.32;;;4.55;;
34872;SDS011;21084;51.098;14.506;2023-04-24T07:40:48;7.07;;;4.78;;
34872;SDS011;21084;51.098;14.506;2023-04-24T07:43:19;6.40;;;4.40;;
34872;SDS011;21084;51.098;14.506;2023-04-24T07:45:48;6.97;;;4.70;;
34872;SDS011;21084;51.098;14.506;2023-04-24T07:48:17;8.53;;;5.13;;
34872;SDS011;21084;51.098;14.506;2023-04-24T07:50:48;7.78;;;4.68;;
34872;SDS011;21084;51.098;14.506;2023-04-24T07:53:16;8.38;;;5.53;;
34872;SDS011;21084;51.098;14.506;2023-04-24T07:55:45;10.05;;;5.32;;
34872;SDS011;21084;51.098;14.506;2023-04-24T07:58:14;10.75;;;6.20;;
34872;SDS011;21084;51.098;14.506;2023-04-24T08:00:44;11.65;;;6.55;;
34872;SDS011;21084;51.098;14.506;2023-04-24T08:05:41;12.57;;;7.25;;
34872;SDS011;21084;51.098;14.506;2023-04-24T08:08:10;11.23;;;6.33;;
34872;SDS011;21084;51.098;14.506;2023-04-24T08:10:39;13.45;;;6.95;;
34872;SDS011;21084;51.098;14.506;2023-04-24T08:13:08;10.57;;;7.30;;
34872;SDS011;21084;51.098;14.506;2023-04-24T08:15:38;14.65;;;7.28;;
34872;SDS011;21084;51.098;14.506;2023-04-24T08:18:08;10.48;;;7.35;;
34872;SDS011;21084;51.098;14.506;2023-04-24T08:20:39;11.57;;;7.50;;
34872;SDS011;21084;51.098;14.506;2023-04-24T08:23:07;13.80;;;7.78;;
34872;SDS011;21084;51.098;14.506;2023-04-24T08:25:36;13.38;;;7.57;;
34872;SDS011;21084;51.098;14.506;2023-04-24T08:28:05;13.10;;;7.40;;
34872;SDS011;21084;51.098;14.506;2023-04-24T08:30:36;10.88;;;7.20;;
34872;SDS011;21084;51.098;14.506;2023-04-24T08:33:05;12.77;;;7.82;;
34872;SDS011;21084;51.098;14.506;2023-04-24T08:35:36;10.83;;;6.80;;
34872;SDS011;21084;51.098;14.506;2023-04-24T08:38:05;13.40;;;7.72;;
34872;SDS011;21084;51.098;14.506;2023-04-24T08:40:34;13.70;;;6.90;;
34872;SDS011;21084;51.098;14.506;2023-04-24T08:43:04;10.55;;;6.18;;
34872;SDS011;21084;51.098;14.506;2023-04-24T08:45:34;9.40;;;5.93;;
34872;SDS011;21084;51.098;14.506;2023-04-24T08:48:03;9.23;;;5.40;;
34872;SDS011;21084;51.098;14.506;2023-04-24T08:50:47;10.70;;;5.03;;
34872;SDS011;21084;51.098;14.506;2023-04-24T08:53:18;6.55;;;4.50;;
34872;SDS011;21084;51.098;14.506;2023-04-24T08:55:47;7.75;;;4.22;;
34872;SDS011;21084;51.098;14.506;2023-04-24T08:58:18;5.45;;;4.07;;
34872;SDS011;21084;51.098;14.506;2023-04-24T09:00:47;8.10;;;4.05;;
34872;SDS011;21084;51.098;14.506;2023-04-24T09:03:16;6.63;;;4.20;;
34872;SDS011;21084;51.098;14.506;2023-04-24T09:05:47;7.18;;;3.97;;
34872;SDS011;21084;51.098;14.506;2023-04-24T09:08:18;6.63;;;3.60;;
34872;SDS011;21084;51.098;14.506;2023-04-24T09:10:47;4.93;;;3.15;;
34872;SDS011;21084;51.098;14.506;2023-04-24T09:13:17;6.30;;;2.95;;
34872;SDS011;21084;51.098;14.506;2023-04-24T09:18:15;5.97;;;3.05;;
34872;SDS011;21084;51.098;14.506;2023-04-24T09:23:27;6.57;;;2.90;;
34872;SDS011;21084;51.098;14.506;2023-04-24T09:25:57;5.70;;;3.17;;
34872;SDS011;21084;51.098;14.506;2023-04-24T09:31:04;5.78;;;2.85;;
34872;SDS011;21084;51.098;14.506;2023-04-24T09:33:33;6.30;;;2.75;;
34872;SDS011;21084;51.098;14.506;2023-04-24T09:36:04;3.38;;;2.38;;
34872;SDS011;21084;51.098;14.506;2023-04-24T09:38:33;4.63;;;2.60;;
34872;SDS011;21084;51.098;14.506;2023-04-24T09:41:04;4.38;;;2.38;;
34872;SDS011;21084;51.098;14.506;2023-04-24T09:43:34;4.68;;;2.60;;
34872;SDS011;21084;51.098;14.506;2023-04-24T09:46:04;6.57;;;2.63;;
34872;SDS011;21084;51.098;14.506;2023-04-24T09:48:36;2.50;;;2.30;;
34872;SDS011;21084;51.098;14.506;2023-04-24T09:51:07;4.57;;;2.70;;
34872;SDS011;21084;51.098;14.506;2023-04-24T09:53:37;4.25;;;2.20;;
34872;SDS011;21084;51.098;14.506;2023-04-24T09:56:07;5.82;;;2.50;;
34872;SDS011;21084;51.098;14.506;2023-04-24T09:58:36;3.75;;;1.75;;
34872;SDS011;21084;51.098;14.506;2023-04-24T10:01:05;3.40;;;2.00;;
34872;SDS011;21084;51.098;14.506;2023-04-24T10:03:34;3.25;;;1.85;;
34872;SDS011;21084;51.098;14.506;2023-04-24T10:06:03;4.45;;;2.08;;
34872;SDS011;21084;51.098;14.506;2023-04-24T10:08:37;3.08;;;2.40;;
34872;SDS011;21084;51.098;14.506;2023-04-24T10:11:06;4.55;;;2.22;;
34872;SDS011;21084;51.098;14.506;2023-04-24T10:13:37;3.70;;;2.55;;
34872;SDS011;21084;51.098;14.506;2023-04-24T10:16:07;3.63;;;2.47;;
34872;SDS011;21084;51.098;14.506;2023-04-24T10:18:36;5.97;;;3.00;;
34872;SDS011;21084;51.098;14.506;2023-04-24T10:21:06;6.38;;;2.42;;
34872;SDS011;21084;51.098;14.506;2023-04-24T10:23:35;5.07;;;2.60;;
34872;SDS011;21084;51.098;14.506;2023-04-24T10:26:06;3.80;;;2.72;;
34872;SDS011;21084;51.098;14.506;2023-04-24T10:28:37;4.55;;;3.00;;
34872;SDS011;21084;51.098;14.506;2023-04-24T10:31:06;5.07;;;2.75;;
34872;SDS011;21084;51.098;14.506;2023-04-24T10:33:36;5.47;;;3.33;;
34872;SDS011;21084;51.098;14.506;2023-04-24T10:36:08;7.22;;;3.60;;
34872;SDS011;21084;51.098;14.506;2023-04-24T10:38:43;6.72;;;3.60;;
34872;SDS011;21084;51.098;14.506;2023-04-24T10:41:16;6.18;;;3.75;;
34872;SDS011;21084;51.098;14.506;2023-04-24T10:44:03;6.82;;;4.63;;
34872;SDS011;21084;51.098;14.506;2023-04-24T10:46:33;7.50;;;4.53;;
34872;SDS011;21084;51.098;14.506;2023-04-24T10:49:03;6.25;;;4.03;;
34872;SDS011;21084;51.098;14.506;2023-04-24T10:51:45;7.70;;;4.95;;
34872;SDS011;21084;51.098;14.506;2023-04-24T10:54:23;6.72;;;4.63;;
34872;SDS011;21084;51.098;14.506;2023-04-24T10:56:52;7.53;;;4.57;;
34872;SDS011;21084;51.098;14.506;2023-04-24T10:59:25;7.22;;;4.82;;
34872;SDS011;21084;51.098;14.506;2023-04-24T11:01:54;5.97;;;4.47;;
34872;SDS011;21084;51.098;14.506;2023-04-24T11:04:29;6.32;;;4.88;;
34872;SDS011;21084;51.098;14.506;2023-04-24T11:06:59;8.15;;;4.82;;
34872;SDS011;21084;51.098;14.506;2023-04-24T11:09:29;6.55;;;4.32;;
34872;SDS011;21084;51.098;14.506;2023-04-24T11:12:02;7.32;;;4.20;;
34872;SDS011;21084;51.098;14.506;2023-04-24T11:17:29;7.18;;;3.80;;
34872;SDS011;21084;51.098;14.506;2023-04-24T11:20:03;4.57;;;3.33;;
34872;SDS011;21084;51.098;14.506;2023-04-24T11:22:53;5.38;;;3.88;;
34872;SDS011;21084;51.098;14.506;2023-04-24T11:25:28;5.25;;;3.75;;
34872;SDS011;21084;51.098;14.506;2023-04-24T11:28:07;6.78;;;3.90;;
34872;SDS011;21084;51.098;14.506;2023-04-24T11:30:43;5.82;;;3.45;;
34872;SDS011;21084;51.098;14.506;2023-04-24T11:33:12;4.70;;;3.60;;
34872;SDS011;21084;51.098;14.506;2023-04-24T11:35:48;4.28;;;3.15;;
34872;SDS011;21084;51.098;14.506;2023-04-24T11:38:19;4.20;;;3.58;;
34872;SDS011;21084;51.098;14.506;2023-04-24T11:40:52;6.55;;;3.38;;
34872;SDS011;21084;51.098;14.506;2023-04-24T11:43:22;6.43;;;3.28;;
34872;SDS011;21084;51.098;14.506;2023-04-24T11:45:51;7.63;;;3.50;;
34872;SDS011;21084;51.098;14.506;2023-04-24T11:48:20;6.00;;;3.63;;
34872;SDS011;21084;51.098;14.506;2023-04-24T11:50:50;4.70;;;3.60;;
34872;SDS011;21084;51.098;14.506;2023-04-24T11:53:19;5.60;;;3.40;;
34872;SDS011;21084;51.098;14.506;2023-04-24T11:55:48;10.00;;;3.50;;
34872;SDS011;21084;51.098;14.506;2023-04-24T11:58:21;4.03;;;3.20;;
34872;SDS011;21084;51.098;14.506;2023-04-24T12:00:55;6.47;;;2.97;;
34872;SDS011;21084;51.098;14.506;2023-04-24T12:03:25;5.70;;;3.38;;
34872;SDS011;21084;51.098;14.506;2023-04-24T12:06:04;3.45;;;2.70;;
34872;SDS011;21084;51.098;14.506;2023-04-24T12:08:33;5.18;;;2.72;;
34872;SDS011;21084;51.098;14.506;2023-04-24T12:11:04;4.63;;;3.25;;
34872;SDS011;21084;51.098;14.506;2023-04-24T12:13:36;3.63;;;2.80;;
34872;SDS011;21084;51.098;14.506;2023-04-24T12:16:05;4.80;;;2.50;;
34872;SDS011;21084;51.098;14.506;2023-04-24T12:18:34;3.17;;;2.80;;
34872;SDS011;21084;51.098;14.506;2023-04-24T12:21:15;3.50;;;2.88;;
34872;SDS011;21084;51.098;14.506;2023-04-24T12:23:48;4.57;;;3.35;;
34872;SDS011;21084;51.098;14.506;2023-04-24T12:26:17;4.32;;;3.13;;
34872;SDS011;21084;51.098;14.506;2023-04-24T12:28:50;3.40;;;2.38;;
34872;SDS011;21084;51.098;14.506;2023-04-24T12:33:48;2.63;;;2.40;;
34872;SDS011;21084;51.098;14.506;2023-04-24T12:36:17;2.75;;;2.50;;
34872;SDS011;21084;51.098;14.506;2023-04-24T12:38:46;2.90;;;2.60;;
34872;SDS011;21084;51.098;14.506;2023-04-24T12:41:20;6.10;;;2.75;;
34872;SDS011;21084;51.098;14.506;2023-04-24T12:43:53;3.13;;;2.40;;
34872;SDS011;21084;51.098;14.506;2023-04-24T12:46:22;4.55;;;2.80;;
34872;SDS011;21084;51.098;14.506;2023-04-24T12:48:51;3.88;;;2.80;;
34872;SDS011;21084;51.098;14.506;2023-04-24T12:51:20;3.72;;;2.47;;
34872;SDS011;21084;51.098;14.506;2023-04-24T12:53:48;3.47;;;2.53;;
34872;SDS011;21084;51.098;14.506;2023-04-24T12:56:17;3.63;;;2.88;;
34872;SDS011;21084;51.098;14.506;2023-04-24T12:58:46;6.20;;;2.93;;
34872;SDS011;21084;51.098;14.506;2023-04-24T13:01:15;3.83;;;3.03;;
34872;SDS011;21084;51.098;14.506;2023-04-24T13:03:45;5.85;;;2.92;;
34872;SDS011;21084;51.098;14.506;2023-04-24T13:06:13;4.10;;;3.20;;
34872;SDS011;21084;51.098;14.506;2023-04-24T13:08:42;4.32;;;2.97;;
34872;SDS011;21084;51.098;14.506;2023-04-24T13:11:11;4.50;;;2.30;;
34872;SDS011;21084;51.098;14.506;2023-04-24T13:13:39;3.38;;;1.42;;
34872;SDS011;21084;51.098;14.506;2023-04-24T13:16:08;8.07;;;1.60;;
34872;SDS011;21084;51.098;14.506;2023-04-24T13:18:38;4.90;;;1.73;;
34872;SDS011;21084;51.098;14.506;2023-04-24T13:21:07;7.80;;;1.75;;
34872;SDS011;21084;51.098;14.506;2023-04-24T13:23:35;4.40;;;1.80;;
34872;SDS011;21084;51.098;14.506;2023-04-24T13:26:04;3.40;;;2.05;;
34872;SDS011;21084;51.098;14.506;2023-04-24T13:28:32;3.42;;;1.55;;
34872;SDS011;21084;51.098;14.506;2023-04-24T13:31:01;3.63;;;1.60;;
34872;SDS011;21084;51.098;14.506;2023-04-24T13:33:29;3.05;;;2.03;;
34872;SDS011;21084;51.098;14.506;2023-04-24T13:35:59;3.50;;;1.60;;
34872;SDS011;21084;51.098;14.506;2023-04-24T13:40:56;1.77;;;1.40;;
34872;SDS011;21084;51.098;14.506;2023-04-24T13:43:24;3.00;;;1.27;;
34872;SDS011;21084;51.098;14.506;2023-04-24T13:45:53;2.53;;;1.20;;
34872;SDS011;21084;51.098;14.506;2023-04-24T13:48:22;3.83;;;1.20;;
34872;SDS011;21084;51.098;14.506;2023-04-24T13:50:50;2.28;;;1.30;;
34872;SDS011;21084;51.098;14.506;2023-04-24T13:53:20;2.47;;;1.20;;
34872;SDS011;21084;51.098;14.506;2023-04-24T13:58:16;3.42;;;1.92;;
34872;SDS011;21084;51.098;14.506;2023-04-24T14:00:45;2.75;;;1.88;;
34872;SDS011;21084;51.098;14.506;2023-04-24T14:03:14;3.35;;;2.00;;
34872;SDS011;21084;51.098;14.506;2023-04-24T14:05:43;3.55;;;1.92;;
34872;SDS011;21084;51.098;14.506;2023-04-24T14:08:12;3.92;;;1.83;;
34872;SDS011;21084;51.098;14.506;2023-04-24T14:10:42;4.32;;;1.80;;
34872;SDS011;21084;51.098;14.506;2023-04-24T14:13:10;3.70;;;2.95;;
34872;SDS011;21084;51.098;14.506;2023-04-24T14:15:39;3.85;;;2.67;;
34872;SDS011;21084;51.098;14.506;2023-04-24T14:18:07;3.03;;;2.10;;
34872;SDS011;21084;51.098;14.506;2023-04-24T14:20:38;3.42;;;2.20;;
34872;SDS011;21084;51.098;14.506;2023-04-24T14:23:06;2.50;;;1.70;;
34872;SDS011;21084;51.098;14.506;2023-04-24T14:25:35;2.03;;;1.40;;
34872;SDS011;21084;51.098;14.506;2023-04-24T14:28:06;3.58;;;2.00;;
34872;SDS011;21084;51.098;14.506;2023-04-24T14:30:35;6.28;;;1.92;;
34872;SDS011;21084;51.098;14.506;2023-04-24T14:33:07;4.15;;;1.55;;
34872;SDS011;21084;51.098;14.506;2023-04-24T14:35:36;3.05;;;1.40;;
34872;SDS011;21084;51.098;14.506;2023-04-24T14:38:04;1.70;;;1.60;;
34872;SDS011;21084;51.098;14.506;2023-04-24T14:40:33;2.30;;;1.35;;
34872;SDS011;21084;51.098;14.506;2023-04-24T14:43:23;2.50;;;1.42;;
34872;SDS011;21084;51.098;14.506;2023-04-24T14:45:52;2.22;;;1.40;;
34872;SDS011;21084;51.098;14.506;2023-04-24T14:48:21;2.45;;;1.70;;
34872;SDS011;21084;51.098;14.506;2023-04-24T14:50:49;2.25;;;1.42;;
34872;SDS011;21084;51.098;14.506;2023-04-24T14:53:18;4.63;;;1.30;;
34872;SDS011;21084;51.098;14.506;2023-04-24T14:55:47;4.80;;;1.73;;
34872;SDS011;21084;51.098;14.506;2023-04-24T14:58:16;4.25;;;1.80;;
34872;SDS011;21084;51.098;14.506;2023-04-24T15:00:46;4.30;;;1.60;;
34872;SDS011;21084;51.098;14.506;2023-04-24T15:03:16;11.82;;;6.82;;
34872;SDS011;21084;51.098;14.506;2023-04-24T15:05:47;3.17;;;1.58;;
34872;SDS011;21084;51.098;14.506;2023-04-24T15:08:16;3.92;;;1.73;;
34872;SDS011;21084;51.098;14.506;2023-04-24T15:10:45;1.65;;;1.30;;
34872;SDS011;21084;51.098;14.506;2023-04-24T15:15:43;2.90;;;1.30;;